sensor_id;sensor_type;location;lat;lon;timestamp;noise_LAeq;noise_LA_min;noise_LA_max;noise_LA01;noise_LA95
48967;Laerm;46511;53.148;8.204;2023-02-07T00:01:46;62.21;42.16;75.81;;
48967;Laerm;46511;53.148;8.204;2023-02-07T00:04:18;62.79;39.21;73.45;;
48967;Laerm;46511;53.148;8.204;2023-02-07T00:06:49;43.08;37.88;50.03;;
48967;Laerm;46511;53.148;8.204;2023-02-07T00:09:20;46.25;39.92;53.53;;
48967;Laerm;46511;53.148;8.204;2023-02-07T00:11:51;44.65;40.33;50.44;;
48967;Laerm;46511;53.148;8.204;2023-02-07T00:14:23;45.24;41.96;51.60;;
48967;Laerm;46511;53.148;8.204;2023-02-07T00:16:54;43.29;39.81;45.97;;
48967;Laerm;46511;53.148;8.204;2023-02-07T00:19:25;43.61;40.43;52.33;;
48967;Laerm;46511;53.148;8.204;2023-02-07T00:21:57;43.53;40.33;52.37;;
48967;Laerm;46511;53.148;8.204;2023-02-07T00:24:28;43.36;40.98;45.54;;
48967;Laerm;46511;53.148;8.204;2023-02-07T00:26:59;43.56;40.33;55.81;;
48967;Laerm;46511;53.148;8.204;2023-02-07T00:29:31;43.53;40.43;51.57;;
48967;Laerm;46511;53.148;8.204;2023-02-07T00:32:02;43.81;39.46;55.46;;
48967;Laerm;46511;53.148;8.204;2023-02-07T00:34:34;43.08;39.81;52.06;;
48967;Laerm;46511;53.148;8.204;2023-02-07T00:37:08;43.52;39.11;48.46;;
48967;Laerm;46511;53.148;8.204;2023-02-07T00:39:39;43.22;40.43;46.66;;
48967;Laerm;46511;53.148;8.204;2023-02-07T00:42:11;43.22;40.23;45.48;;
48967;Laerm;46511;53.148;8.204;2023-02-07T00:44:42;43.08;38.74;49.12;;
48967;Laerm;46511;53.148;8.204;2023-02-07T00:47:13;43.17;38.95;55.82;;
48967;Laerm;46511;53.148;8.204;2023-02-07T00:49:45;42.62;38.52;47.63;;
48967;Laerm;46511;53.148;8.204;2023-02-07T00:52:16;42.89;38.95;49.32;;
48967;Laerm;46511;53.148;8.204;2023-02-07T00:54:47;43.11;38.95;48.39;;
48967;Laerm;46511;53.148;8.204;2023-02-07T00:57:18;42.45;37.32;48.81;;
48967;Laerm;46511;53.148;8.204;2023-02-07T00:59:50;43.07;37.88;57.82;;
48967;Laerm;46511;53.148;8.204;2023-02-07T01:02:21;43.45;38.95;49.69;;
48967;Laerm;46511;53.148;8.204;2023-02-07T01:04:52;43.29;39.46;48.90;;
48967;Laerm;46511;53.148;8.204;2023-02-07T01:07:23;42.59;38.37;45.42;;
48967;Laerm;46511;53.148;8.204;2023-02-07T01:09:55;42.60;38.67;45.83;;
48967;Laerm;46511;53.148;8.204;2023-02-07T01:12:26;42.62;36.69;47.76;;
48967;Laerm;46511;53.148;8.204;2023-02-07T01:14:58;43.58;40.43;48.34;;
48967;Laerm;46511;53.148;8.204;2023-02-07T01:17:29;42.93;40.23;48.12;;
48967;Laerm;46511;53.148;8.204;2023-02-07T01:20:00;42.83;39.81;45.51;;
48967;Laerm;46511;53.148;8.204;2023-02-07T01:22:31;43.43;40.80;49.85;;
48967;Laerm;46511;53.148;8.204;2023-02-07T01:25:04;42.92;40.23;46.38;;
48967;Laerm;46511;53.148;8.204;2023-02-07T01:27:36;45.32;40.53;52.99;;
48967;Laerm;46511;53.148;8.204;2023-02-07T01:30:08;43.18;40.33;45.60;;
48967;Laerm;46511;53.148;8.204;2023-02-07T01:32:39;42.99;39.81;62.56;;
48967;Laerm;46511;53.148;8.204;2023-02-07T01:35:10;42.23;39.81;45.60;;
48967;Laerm;46511;53.148;8.204;2023-02-07T01:37:42;42.65;39.58;48.78;;
48967;Laerm;46511;53.148;8.204;2023-02-07T01:40:13;42.72;39.70;45.91;;
48967;Laerm;46511;53.148;8.204;2023-02-07T01:42:44;43.14;39.70;48.73;;
48967;Laerm;46511;53.148;8.204;2023-02-07T01:45:29;42.94;39.58;46.05;;
48967;Laerm;46511;53.148;8.204;2023-02-07T01:48:06;42.83;40.03;46.23;;
48967;Laerm;46511;53.148;8.204;2023-02-07T01:50:41;43.35;40.43;46.82;;
48967;Laerm;46511;53.148;8.204;2023-02-07T01:53:15;43.90;39.99;49.45;;
48967;Laerm;46511;53.148;8.204;2023-02-07T01:55:49;60.33;41.30;73.44;;
48967;Laerm;46511;53.148;8.204;2023-02-07T01:58:22;65.10;44.43;75.12;;
48967;Laerm;46511;53.148;8.204;2023-02-07T02:00:54;44.19;40.36;48.05;;
48967;Laerm;46511;53.148;8.204;2023-02-07T02:03:25;43.36;40.71;50.22;;
48967;Laerm;46511;53.148;8.204;2023-02-07T02:05:57;42.94;40.43;46.69;;
48967;Laerm;46511;53.148;8.204;2023-02-07T02:08:28;43.34;40.62;50.51;;
48967;Laerm;46511;53.148;8.204;2023-02-07T02:17:16;43.62;39.92;51.37;;
48967;Laerm;46511;53.148;8.204;2023-02-07T02:45:44;44.27;41.61;48.49;;
48967;Laerm;46511;53.148;8.204;2023-02-07T02:48:17;61.86;43.09;75.51;;
48967;Laerm;46511;53.148;8.204;2023-02-07T02:50:49;49.90;40.79;62.46;;
48967;Laerm;46511;53.148;8.204;2023-02-07T02:53:21;43.36;41.06;50.22;;
48967;Laerm;46511;53.148;8.204;2023-02-07T03:01:47;48.55;41.82;64.56;;
48967;Laerm;46511;53.148;8.204;2023-02-07T03:04:51;43.92;40.71;48.54;;
48967;Laerm;46511;53.148;8.204;2023-02-07T03:07:40;43.55;41.22;47.22;;
48967;Laerm;46511;53.148;8.204;2023-02-07T03:10:43;47.05;41.53;54.71;;
48967;Laerm;46511;53.148;8.204;2023-02-07T03:16:17;44.49;42.76;46.91;;
48967;Laerm;46511;53.148;8.204;2023-02-07T03:19:10;52.18;42.59;66.95;;
48967;Laerm;46511;53.148;8.204;2023-02-07T03:21:49;43.83;41.46;47.57;;
48967;Laerm;46511;53.148;8.204;2023-02-07T03:24:26;43.52;40.80;47.74;;
48967;Laerm;46511;53.148;8.204;2023-02-07T03:27:03;43.60;41.14;47.90;;
48967;Laerm;46511;53.148;8.204;2023-02-07T03:29:36;47.08;41.46;73.00;;
48967;Laerm;46511;53.148;8.204;2023-02-07T03:32:11;51.13;42.35;65.60;;
48967;Laerm;46511;53.148;8.204;2023-02-07T03:34:57;44.18;41.82;52.70;;
48967;Laerm;46511;53.148;8.204;2023-02-07T03:37:34;44.50;42.09;63.90;;
48967;Laerm;46511;53.148;8.204;2023-02-07T03:40:08;48.43;42.47;62.35;;
48967;Laerm;46511;53.148;8.204;2023-02-07T03:42:48;64.75;43.04;79.00;;
48967;Laerm;46511;53.148;8.204;2023-02-07T03:45:21;44.77;41.75;50.08;;
48967;Laerm;46511;53.148;8.204;2023-02-07T03:47:52;44.36;41.89;49.45;;
48967;Laerm;46511;53.148;8.204;2023-02-07T03:50:24;44.75;42.59;56.14;;
48967;Laerm;46511;53.148;8.204;2023-02-07T03:52:55;44.75;41.61;52.88;;
48967;Laerm;46511;53.148;8.204;2023-02-07T03:55:26;43.97;41.53;48.96;;
48967;Laerm;46511;53.148;8.204;2023-02-07T03:57:59;46.49;41.61;61.83;;
48967;Laerm;46511;53.148;8.204;2023-02-07T04:00:30;49.21;42.35;63.73;;
48967;Laerm;46511;53.148;8.204;2023-02-07T04:03:02;43.92;42.03;45.63;;
48967;Laerm;46511;53.148;8.204;2023-02-07T04:05:34;44.60;42.35;46.95;;
48967;Laerm;46511;53.148;8.204;2023-02-07T04:08:05;44.45;42.82;46.52;;
48967;Laerm;46511;53.148;8.204;2023-02-07T04:10:36;54.31;42.47;67.91;;
48967;Laerm;46511;53.148;8.204;2023-02-07T04:13:08;50.44;41.89;63.72;;
48967;Laerm;46511;53.148;8.204;2023-02-07T04:15:39;44.23;41.96;47.70;;
48967;Laerm;46511;53.148;8.204;2023-02-07T04:18:10;44.39;42.47;49.00;;
48967;Laerm;46511;53.148;8.204;2023-02-07T04:20:41;53.90;42.76;69.37;;
48967;Laerm;46511;53.148;8.204;2023-02-07T04:23:13;45.19;42.76;52.37;;
48967;Laerm;46511;53.148;8.204;2023-02-07T04:25:44;50.17;43.46;64.12;;
48967;Laerm;46511;53.148;8.204;2023-02-07T04:28:15;48.16;43.54;67.49;;
48967;Laerm;46511;53.148;8.204;2023-02-07T04:30:47;46.78;43.24;54.38;;
48967;Laerm;46511;53.148;8.204;2023-02-07T04:33:18;52.86;42.53;65.96;;
48967;Laerm;46511;53.148;8.204;2023-02-07T04:35:59;53.46;43.09;70.04;;
48967;Laerm;46511;53.148;8.204;2023-02-07T04:38:31;48.33;42.98;62.67;;
48967;Laerm;46511;53.148;8.204;2023-02-07T04:41:04;51.88;43.49;68.71;;
48967;Laerm;46511;53.148;8.204;2023-02-07T04:43:36;53.38;44.23;69.15;;
48967;Laerm;46511;53.148;8.204;2023-02-07T04:46:08;46.42;43.72;53.59;;
48967;Laerm;46511;53.148;8.204;2023-02-07T04:48:35;47.75;43.29;62.81;;
48967;Laerm;46511;53.148;8.204;2023-02-07T04:51:07;54.30;43.24;69.09;;
48967;Laerm;46511;53.148;8.204;2023-02-07T04:53:39;44.95;43.09;49.64;;
48967;Laerm;46511;53.148;8.204;2023-02-07T04:56:10;45.07;43.29;49.21;;
48967;Laerm;46511;53.148;8.204;2023-02-07T04:58:36;50.51;43.39;64.95;;
48967;Laerm;46511;53.148;8.204;2023-02-07T05:01:07;44.91;43.19;50.34;;
48967;Laerm;46511;53.148;8.204;2023-02-07T05:03:39;44.64;42.65;54.71;;
48967;Laerm;46511;53.148;8.204;2023-02-07T05:06:10;45.00;42.82;47.63;;
48967;Laerm;46511;53.148;8.204;2023-02-07T05:08:43;51.95;43.90;67.60;;
48967;Laerm;46511;53.148;8.204;2023-02-07T05:11:14;46.67;43.72;59.37;;
48967;Laerm;46511;53.148;8.204;2023-02-07T05:13:45;45.75;43.72;51.74;;
48967;Laerm;46511;53.148;8.204;2023-02-07T05:16:16;53.55;44.39;66.48;;
48967;Laerm;46511;53.148;8.204;2023-02-07T05:18:48;49.65;43.29;61.49;;
48967;Laerm;46511;53.148;8.204;2023-02-07T05:21:19;52.97;43.54;66.20;;
48967;Laerm;46511;53.148;8.204;2023-02-07T05:23:50;52.96;44.15;68.68;;
48967;Laerm;46511;53.148;8.204;2023-02-07T05:26:22;48.83;44.07;61.04;;
48967;Laerm;46511;53.148;8.204;2023-02-07T05:28:53;52.44;44.47;64.54;;
48967;Laerm;46511;53.148;8.204;2023-02-07T05:31:24;54.36;43.72;67.79;;
48967;Laerm;46511;53.148;8.204;2023-02-07T05:34:15;46.65;43.58;56.96;;
48967;Laerm;46511;53.148;8.204;2023-02-07T05:36:47;47.66;43.99;58.05;;
48967;Laerm;46511;53.148;8.204;2023-02-07T05:39:18;56.41;44.54;66.13;;
48967;Laerm;46511;53.148;8.204;2023-02-07T05:41:49;56.10;44.65;71.77;;
48967;Laerm;46511;53.148;8.204;2023-02-07T05:44:21;46.28;44.11;50.45;;
48967;Laerm;46511;53.148;8.204;2023-02-07T05:46:52;56.40;44.11;76.62;;
48967;Laerm;46511;53.148;8.204;2023-02-07T05:49:23;52.06;43.63;61.72;;
48967;Laerm;46511;53.148;8.204;2023-02-07T05:51:54;58.69;43.81;73.92;;
48967;Laerm;46511;53.148;8.204;2023-02-07T05:54:26;54.73;43.77;70.90;;
48967;Laerm;46511;53.148;8.204;2023-02-07T05:56:57;54.51;43.39;72.80;;
48967;Laerm;46511;53.148;8.204;2023-02-07T05:59:28;45.44;43.29;50.34;;
48967;Laerm;46511;53.148;8.204;2023-02-07T06:02:00;54.25;43.49;64.45;;
48967;Laerm;46511;53.148;8.204;2023-02-07T06:04:31;52.59;43.19;67.02;;
48967;Laerm;46511;53.148;8.204;2023-02-07T06:07:03;53.06;44.03;63.47;;
48967;Laerm;46511;53.148;8.204;2023-02-07T06:09:35;61.43;44.87;72.98;;
48967;Laerm;46511;53.148;8.204;2023-02-07T06:12:06;57.46;44.03;70.37;;
48967;Laerm;46511;53.148;8.204;2023-02-07T06:14:37;60.14;44.65;79.81;;
48967;Laerm;46511;53.148;8.204;2023-02-07T06:17:09;58.35;44.62;69.04;;
48967;Laerm;46511;53.148;8.204;2023-02-07T06:19:41;57.99;44.87;69.22;;
48967;Laerm;46511;53.148;8.204;2023-02-07T06:22:07;59.14;51.90;69.21;;
48967;Laerm;46511;53.148;8.204;2023-02-07T06:24:38;59.24;51.70;70.78;;
48967;Laerm;46511;53.148;8.204;2023-02-07T06:27:11;59.04;44.89;70.61;;
48967;Laerm;46511;53.148;8.204;2023-02-07T06:29:42;58.08;44.62;68.92;;
48967;Laerm;46511;53.148;8.204;2023-02-07T06:32:13;56.03;43.90;69.37;;
48967;Laerm;46511;53.148;8.204;2023-02-07T06:34:44;54.17;44.11;63.86;;
48967;Laerm;46511;53.148;8.204;2023-02-07T06:37:16;55.13;44.43;66.71;;
48967;Laerm;46511;53.148;8.204;2023-02-07T06:39:47;56.49;44.87;70.24;;
48967;Laerm;46511;53.148;8.204;2023-02-07T06:42:18;56.89;44.87;69.76;;
48967;Laerm;46511;53.148;8.204;2023-02-07T06:44:45;60.63;45.48;70.85;;
48967;Laerm;46511;53.148;8.204;2023-02-07T06:47:16;66.28;46.57;85.25;;
48967;Laerm;46511;53.148;8.204;2023-02-07T06:49:49;58.90;45.39;66.73;;
48967;Laerm;46511;53.148;8.204;2023-02-07T06:52:20;58.71;44.62;66.54;;
48967;Laerm;46511;53.148;8.204;2023-02-07T06:54:52;58.47;45.86;69.34;;
48967;Laerm;46511;53.148;8.204;2023-02-07T06:57:23;59.02;45.17;69.67;;
48967;Laerm;46511;53.148;8.204;2023-02-07T06:59:54;57.65;44.94;67.98;;
48967;Laerm;46511;53.148;8.204;2023-02-07T07:02:25;60.79;44.87;75.41;;
48967;Laerm;46511;53.148;8.204;2023-02-07T07:04:57;57.88;44.35;68.79;;
48967;Laerm;46511;53.148;8.204;2023-02-07T07:07:28;55.66;44.31;67.67;;
48967;Laerm;46511;53.148;8.204;2023-02-07T07:09:59;58.58;45.39;68.61;;
48967;Laerm;46511;53.148;8.204;2023-02-07T07:12:31;58.86;45.30;67.53;;
48967;Laerm;46511;53.148;8.204;2023-02-07T07:15:02;57.37;45.91;65.71;;
48967;Laerm;46511;53.148;8.204;2023-02-07T07:17:34;56.26;45.57;67.29;;
48967;Laerm;46511;53.148;8.204;2023-02-07T07:20:00;58.91;44.73;68.04;;
48967;Laerm;46511;53.148;8.204;2023-02-07T07:22:32;58.30;45.04;72.58;;
48967;Laerm;46511;53.148;8.204;2023-02-07T07:25:04;56.46;44.62;68.28;;
48967;Laerm;46511;53.148;8.204;2023-02-07T07:27:36;57.64;46.30;68.35;;
48967;Laerm;46511;53.148;8.204;2023-02-07T07:30:08;56.65;44.69;66.50;;
48967;Laerm;46511;53.148;8.204;2023-02-07T07:32:39;56.68;43.54;68.76;;
48967;Laerm;46511;53.148;8.204;2023-02-07T07:35:10;57.20;43.44;67.70;;
48967;Laerm;46511;53.148;8.204;2023-02-07T07:37:42;57.86;44.19;67.70;;
48967;Laerm;46511;53.148;8.204;2023-02-07T07:40:13;55.54;43.09;64.87;;
48967;Laerm;46511;53.148;8.204;2023-02-07T07:42:44;58.45;44.03;67.92;;
48967;Laerm;46511;53.148;8.204;2023-02-07T07:45:16;54.25;43.90;65.69;;
48967;Laerm;46511;53.148;8.204;2023-02-07T07:47:47;58.29;45.31;68.30;;
48967;Laerm;46511;53.148;8.204;2023-02-07T07:50:18;58.53;44.62;72.26;;
48967;Laerm;46511;53.148;8.204;2023-02-07T07:52:49;56.46;43.99;67.05;;
48967;Laerm;46511;53.148;8.204;2023-02-07T07:55:21;60.91;44.39;80.86;;
48967;Laerm;46511;53.148;8.204;2023-02-07T07:57:53;52.10;43.49;63.40;;
48967;Laerm;46511;53.148;8.204;2023-02-07T08:00:24;57.57;43.77;68.93;;
48967;Laerm;46511;53.148;8.204;2023-02-07T08:02:55;56.54;43.29;68.23;;
48967;Laerm;46511;53.148;8.204;2023-02-07T08:05:27;55.89;44.27;69.09;;
48967;Laerm;46511;53.148;8.204;2023-02-07T08:07:58;57.44;43.99;66.17;;
48967;Laerm;46511;53.148;8.204;2023-02-07T08:10:29;56.23;43.44;68.85;;
48967;Laerm;46511;53.148;8.204;2023-02-07T08:13:01;65.83;42.53;80.45;;
48967;Laerm;46511;53.148;8.204;2023-02-07T08:15:32;57.12;43.19;71.04;;
48967;Laerm;46511;53.148;8.204;2023-02-07T08:18:04;52.87;42.53;64.47;;
48967;Laerm;46511;53.148;8.204;2023-02-07T08:20:36;53.63;42.98;66.39;;
48967;Laerm;46511;53.148;8.204;2023-02-07T08:23:07;56.55;42.71;66.92;;
48967;Laerm;46511;53.148;8.204;2023-02-07T08:25:39;53.55;42.47;71.44;;
48967;Laerm;46511;53.148;8.204;2023-02-07T08:28:12;57.85;43.63;73.83;;
48967;Laerm;46511;53.148;8.204;2023-02-07T08:30:43;58.43;43.77;69.32;;
48967;Laerm;46511;53.148;8.204;2023-02-07T08:33:17;57.23;44.07;65.52;;
48967;Laerm;46511;53.148;8.204;2023-02-07T08:35:49;56.07;42.98;76.50;;
48967;Laerm;46511;53.148;8.204;2023-02-07T08:38:21;54.89;43.90;65.66;;
48967;Laerm;46511;53.148;8.204;2023-02-07T08:40:52;56.30;43.51;64.41;;
48967;Laerm;46511;53.148;8.204;2023-02-07T08:43:23;59.58;48.90;71.73;;
48967;Laerm;46511;53.148;8.204;2023-02-07T08:45:55;56.99;44.47;64.41;;
48967;Laerm;46511;53.148;8.204;2023-02-07T08:48:26;59.39;44.39;67.65;;
48967;Laerm;46511;53.148;8.204;2023-02-07T08:51:05;56.90;44.15;67.22;;
48967;Laerm;46511;53.148;8.204;2023-02-07T08:53:37;57.36;45.07;73.52;;
48967;Laerm;46511;53.148;8.204;2023-02-07T08:56:08;56.27;43.39;65.36;;
48967;Laerm;46511;53.148;8.204;2023-02-07T08:58:39;56.32;44.07;67.95;;
48967;Laerm;46511;53.148;8.204;2023-02-07T09:01:12;56.83;44.65;67.72;;
48967;Laerm;46511;53.148;8.204;2023-02-07T09:03:43;55.02;45.77;71.03;;
48967;Laerm;46511;53.148;8.204;2023-02-07T09:06:14;58.38;45.69;67.63;;
48967;Laerm;46511;53.148;8.204;2023-02-07T09:08:45;54.22;43.99;67.43;;
48967;Laerm;46511;53.148;8.204;2023-02-07T09:11:17;57.31;44.80;67.90;;
48967;Laerm;46511;53.148;8.204;2023-02-07T09:13:48;55.63;43.86;67.13;;
48967;Laerm;46511;53.148;8.204;2023-02-07T09:16:19;63.05;44.87;71.16;;
48967;Laerm;46511;53.148;8.204;2023-02-07T09:18:53;56.56;43.54;67.36;;
48967;Laerm;46511;53.148;8.204;2023-02-07T09:21:24;55.93;43.68;68.76;;
48967;Laerm;46511;53.148;8.204;2023-02-07T09:23:55;56.19;43.39;68.74;;
48967;Laerm;46511;53.148;8.204;2023-02-07T09:26:27;52.52;43.44;62.07;;
48967;Laerm;46511;53.148;8.204;2023-02-07T09:28:59;56.69;43.14;79.93;;
48967;Laerm;46511;53.148;8.204;2023-02-07T09:31:32;56.78;42.47;68.09;;
48967;Laerm;46511;53.148;8.204;2023-02-07T09:34:04;52.45;43.04;66.63;;
48967;Laerm;46511;53.148;8.204;2023-02-07T09:36:36;54.19;43.86;67.44;;
48967;Laerm;46511;53.148;8.204;2023-02-07T09:39:07;58.05;43.54;71.57;;
48967;Laerm;46511;53.148;8.204;2023-02-07T09:44:27;57.60;42.59;73.74;;
48967;Laerm;46511;53.148;8.204;2023-02-07T09:47:16;57.19;43.72;68.57;;
48967;Laerm;46511;53.148;8.204;2023-02-07T09:49:58;60.43;44.43;71.43;;
48967;Laerm;46511;53.148;8.204;2023-02-07T09:55:28;57.09;43.14;74.80;;
48967;Laerm;46511;53.148;8.204;2023-02-07T09:58:09;56.93;43.24;66.93;;
48967;Laerm;46511;53.148;8.204;2023-02-07T10:00:45;57.68;42.76;69.66;;
48967;Laerm;46511;53.148;8.204;2023-02-07T10:03:22;57.27;42.59;68.38;;
48967;Laerm;46511;53.148;8.204;2023-02-07T10:05:59;55.83;42.98;70.76;;
48967;Laerm;46511;53.148;8.204;2023-02-07T10:08:32;57.88;42.98;72.52;;
48967;Laerm;46511;53.148;8.204;2023-02-07T10:11:34;58.25;43.29;79.87;;
48967;Laerm;46511;53.148;8.204;2023-02-07T10:17:01;61.41;44.65;73.07;;
48967;Laerm;46511;53.148;8.204;2023-02-07T10:25:50;55.42;43.99;71.98;;
48967;Laerm;46511;53.148;8.204;2023-02-07T10:28:39;57.48;43.90;72.23;;
48967;Laerm;46511;53.148;8.204;2023-02-07T10:31:15;55.67;43.99;66.34;;
48967;Laerm;46511;53.148;8.204;2023-02-07T10:33:58;56.67;41.96;65.04;;
48967;Laerm;46511;53.148;8.204;2023-02-07T10:36:31;56.66;41.06;68.31;;
48967;Laerm;46511;53.148;8.204;2023-02-07T10:39:20;52.80;41.46;65.12;;
48967;Laerm;46511;53.148;8.204;2023-02-07T10:41:54;58.08;42.09;70.07;;
48967;Laerm;46511;53.148;8.204;2023-02-07T10:44:27;56.53;41.46;67.71;;
48967;Laerm;46511;53.148;8.204;2023-02-07T10:47:01;57.98;42.76;69.34;;
48967;Laerm;46511;53.148;8.204;2023-02-07T10:49:36;57.02;42.76;71.09;;
48967;Laerm;46511;53.148;8.204;2023-02-07T10:52:26;57.51;42.29;73.93;;
48967;Laerm;46511;53.148;8.204;2023-02-07T10:55:00;60.61;45.07;70.34;;
48967;Laerm;46511;53.148;8.204;2023-02-07T10:57:32;55.73;41.46;67.73;;
48967;Laerm;46511;53.148;8.204;2023-02-07T11:02:52;59.43;42.47;68.81;;
48967;Laerm;46511;53.148;8.204;2023-02-07T11:07:56;61.41;42.59;71.88;;
48967;Laerm;46511;53.148;8.204;2023-02-07T11:13:09;62.21;43.49;73.05;;
48967;Laerm;46511;53.148;8.204;2023-02-07T11:15:58;60.16;43.34;70.92;;
48967;Laerm;46511;53.148;8.204;2023-02-07T11:18:46;60.21;44.11;68.52;;
48967;Laerm;46511;53.148;8.204;2023-02-07T11:24:27;58.27;43.68;67.25;;
48967;Laerm;46511;53.148;8.204;2023-02-07T11:27:12;59.86;42.71;69.94;;
48967;Laerm;46511;53.148;8.204;2023-02-07T11:30:13;54.45;42.82;67.10;;
48967;Laerm;46511;53.148;8.204;2023-02-07T11:32:56;56.32;42.93;68.08;;
48967;Laerm;46511;53.148;8.204;2023-02-07T11:35:28;55.46;43.19;68.55;;
48967;Laerm;46511;53.148;8.204;2023-02-07T11:38:11;54.72;42.41;67.08;;
48967;Laerm;46511;53.148;8.204;2023-02-07T11:40:46;59.55;43.58;73.20;;
48967;Laerm;46511;53.148;8.204;2023-02-07T11:43:19;55.70;42.41;66.92;;
48967;Laerm;46511;53.148;8.204;2023-02-07T11:45:58;55.37;40.98;65.47;;
48967;Laerm;46511;53.148;8.204;2023-02-07T11:48:33;56.04;40.89;68.90;;
48967;Laerm;46511;53.148;8.204;2023-02-07T11:51:08;57.37;41.46;66.33;;
48967;Laerm;46511;53.148;8.204;2023-02-07T11:53:48;52.18;40.62;63.79;;
48967;Laerm;46511;53.148;8.204;2023-02-07T11:56:29;58.77;41.38;72.08;;
48967;Laerm;46511;53.148;8.204;2023-02-07T11:59:07;54.15;41.96;69.04;;
48967;Laerm;46511;53.148;8.204;2023-02-07T12:01:53;63.20;43.99;76.26;;
48967;Laerm;46511;53.148;8.204;2023-02-07T12:04:28;58.38;42.03;69.39;;
48967;Laerm;46511;53.148;8.204;2023-02-07T12:09:42;56.20;41.14;68.79;;
48967;Laerm;46511;53.148;8.204;2023-02-07T12:12:19;54.65;41.14;72.71;;
48967;Laerm;46511;53.148;8.204;2023-02-07T12:15:00;54.00;41.06;74.20;;
48967;Laerm;46511;53.148;8.204;2023-02-07T12:17:52;56.10;41.46;72.59;;
48967;Laerm;46511;53.148;8.204;2023-02-07T12:20:37;59.27;43.29;76.23;;
48967;Laerm;46511;53.148;8.204;2023-02-07T12:23:19;54.90;41.22;68.49;;
48967;Laerm;46511;53.148;8.204;2023-02-07T12:26:02;55.07;41.46;65.63;;
48967;Laerm;46511;53.148;8.204;2023-02-07T12:28:44;53.45;41.14;66.46;;
48967;Laerm;46511;53.148;8.204;2023-02-07T12:31:27;53.56;40.98;76.75;;
48967;Laerm;46511;53.148;8.204;2023-02-07T12:34:13;54.11;40.53;66.37;;
48967;Laerm;46511;53.148;8.204;2023-02-07T12:36:52;54.21;40.89;66.73;;
48967;Laerm;46511;53.148;8.204;2023-02-07T12:39:48;61.01;41.68;74.90;;
48967;Laerm;46511;53.148;8.204;2023-02-07T12:42:42;53.32;41.14;62.66;;
48967;Laerm;46511;53.148;8.204;2023-02-07T12:45:17;55.81;40.98;67.28;;
48967;Laerm;46511;53.148;8.204;2023-02-07T12:48:26;53.84;40.89;67.36;;
48967;Laerm;46511;53.148;8.204;2023-02-07T12:51:04;57.78;42.47;67.88;;
48967;Laerm;46511;53.148;8.204;2023-02-07T12:54:10;57.20;41.68;67.51;;
48967;Laerm;46511;53.148;8.204;2023-02-07T12:59:41;56.56;41.06;67.54;;
48967;Laerm;46511;53.148;8.204;2023-02-07T13:02:33;56.73;42.76;67.76;;
48967;Laerm;46511;53.148;8.204;2023-02-07T13:05:29;58.55;41.22;73.96;;
48967;Laerm;46511;53.148;8.204;2023-02-07T13:11:18;57.18;42.69;71.45;;
48967;Laerm;46511;53.148;8.204;2023-02-07T13:14:02;57.48;43.49;68.41;;
48967;Laerm;46511;53.148;8.204;2023-02-07T13:22:35;57.69;42.16;73.25;;
48967;Laerm;46511;53.148;8.204;2023-02-07T13:25:18;51.59;40.33;64.04;;
48967;Laerm;46511;53.148;8.204;2023-02-07T13:27:53;55.94;40.98;66.60;;
48967;Laerm;46511;53.148;8.204;2023-02-07T13:30:28;56.11;43.04;65.32;;
48967;Laerm;46511;53.148;8.204;2023-02-07T13:33:23;54.28;41.38;64.93;;
48967;Laerm;46511;53.148;8.204;2023-02-07T13:36:02;57.39;41.30;66.81;;
48967;Laerm;46511;53.148;8.204;2023-02-07T13:41:31;55.28;42.03;69.29;;
48967;Laerm;46511;53.148;8.204;2023-02-07T13:47:35;60.58;43.63;76.48;;
48967;Laerm;46511;53.148;8.204;2023-02-07T13:52:52;55.01;41.75;66.47;;
48967;Laerm;46511;53.148;8.204;2023-02-07T13:55:34;56.54;41.38;68.31;;
48967;Laerm;46511;53.148;8.204;2023-02-07T14:01:24;57.52;41.06;70.84;;
48967;Laerm;46511;53.148;8.204;2023-02-07T14:04:03;58.90;52.50;67.88;;
48967;Laerm;46511;53.148;8.204;2023-02-07T14:06:41;60.36;52.77;73.28;;
48967;Laerm;46511;53.148;8.204;2023-02-07T14:09:32;58.17;41.53;71.79;;
48967;Laerm;46511;53.148;8.204;2023-02-07T14:12:12;56.82;45.20;70.51;;
48967;Laerm;46511;53.148;8.204;2023-02-07T14:14:46;59.28;41.96;72.42;;
48967;Laerm;46511;53.148;8.204;2023-02-07T14:19:59;59.03;41.46;75.59;;
48967;Laerm;46511;53.148;8.204;2023-02-07T14:28:30;58.96;39.81;67.61;;
48967;Laerm;46511;53.148;8.204;2023-02-07T14:31:20;53.92;40.03;64.54;;
48967;Laerm;46511;53.148;8.204;2023-02-07T14:34:10;56.96;40.62;67.03;;
48967;Laerm;46511;53.148;8.204;2023-02-07T14:36:42;51.21;39.21;63.77;;
48967;Laerm;46511;53.148;8.204;2023-02-07T14:41:50;55.90;41.96;67.29;;
48967;Laerm;46511;53.148;8.204;2023-02-07T14:44:31;58.66;42.03;74.72;;
48967;Laerm;46511;53.148;8.204;2023-02-07T14:47:07;60.34;45.51;69.99;;
48967;Laerm;46511;53.148;8.204;2023-02-07T14:49:43;58.10;42.59;68.84;;
48967;Laerm;46511;53.148;8.204;2023-02-07T14:52:28;58.52;42.03;71.30;;
48967;Laerm;46511;53.148;8.204;2023-02-07T14:55:11;58.37;41.53;68.19;;
48967;Laerm;46511;53.148;8.204;2023-02-07T14:58:02;56.32;40.53;70.27;;
48967;Laerm;46511;53.148;8.204;2023-02-07T15:00:47;56.34;44.47;68.45;;
48967;Laerm;46511;53.148;8.204;2023-02-07T15:03:20;56.72;41.22;66.25;;
48967;Laerm;46511;53.148;8.204;2023-02-07T15:05:55;56.88;41.61;66.31;;
48967;Laerm;46511;53.148;8.204;2023-02-07T15:08:29;59.04;42.42;74.04;;
48967;Laerm;46511;53.148;8.204;2023-02-07T15:11:12;54.85;41.26;68.99;;
48967;Laerm;46511;53.148;8.204;2023-02-07T15:13:46;54.83;41.53;67.82;;
48967;Laerm;46511;53.148;8.204;2023-02-07T15:16:20;58.87;43.39;72.27;;
48967;Laerm;46511;53.148;8.204;2023-02-07T15:19:13;55.53;43.33;72.23;;
48967;Laerm;46511;53.148;8.204;2023-02-07T15:21:49;56.41;41.61;71.70;;
48967;Laerm;46511;53.148;8.204;2023-02-07T15:24:28;56.15;41.68;68.17;;
48967;Laerm;46511;53.148;8.204;2023-02-07T15:27:03;56.74;42.16;68.14;;
48967;Laerm;46511;53.148;8.204;2023-02-07T15:29:36;59.10;43.63;72.87;;
48967;Laerm;46511;53.148;8.204;2023-02-07T15:32:28;59.12;43.90;70.31;;
48967;Laerm;46511;53.148;8.204;2023-02-07T15:35:17;59.45;39.81;70.99;;
48967;Laerm;46511;53.148;8.204;2023-02-07T15:37:49;60.25;39.70;73.94;;
48967;Laerm;46511;53.148;8.204;2023-02-07T15:40:22;58.10;42.88;70.38;;
48967;Laerm;46511;53.148;8.204;2023-02-07T15:42:56;59.70;43.19;67.60;;
48967;Laerm;46511;53.148;8.204;2023-02-07T15:45:30;58.45;46.50;71.96;;
48967;Laerm;46511;53.148;8.204;2023-02-07T15:48:06;60.85;45.30;76.31;;
48967;Laerm;46511;53.148;8.204;2023-02-07T15:50:39;64.53;44.39;76.36;;
48967;Laerm;46511;53.148;8.204;2023-02-07T15:53:19;58.40;44.15;67.60;;
48967;Laerm;46511;53.148;8.204;2023-02-07T15:55:53;56.32;41.68;70.37;;
48967;Laerm;46511;53.148;8.204;2023-02-07T15:58:33;57.14;41.46;68.22;;
48967;Laerm;46511;53.148;8.204;2023-02-07T16:01:13;58.81;41.68;66.31;;
48967;Laerm;46511;53.148;8.204;2023-02-07T16:03:46;60.03;44.54;67.75;;
48967;Laerm;46511;53.148;8.204;2023-02-07T16:06:22;56.01;42.59;66.55;;
48967;Laerm;46511;53.148;8.204;2023-02-07T16:08:58;57.35;42.88;66.07;;
48967;Laerm;46511;53.148;8.204;2023-02-07T16:21:58;58.54;43.94;67.75;;
48967;Laerm;46511;53.148;8.204;2023-02-07T16:24:34;60.37;41.30;69.86;;